createdAt,value
2018-02-23T00:00:54.835Z,44.00
2018-02-23T00:01:55.927Z,44.00
2018-02-23T00:02:57.047Z,44.10
2018-02-23T00:03:58.139Z,45.00
2018-02-23T00:04:59.243Z,44.10
2018-02-23T00:06:00.331Z,44.20
2018-02-23T00:07:01.432Z,44.40
2018-02-23T00:08:02.541Z,44.60
2018-02-23T00:09:03.656Z,45.10
2018-02-23T00:10:04.740Z,46.00
2018-02-23T00:11:06.592Z,45.20
2018-02-23T00:12:08.436Z,45.40
2018-02-23T00:13:10.279Z,45.60
2018-02-23T00:14:11.386Z,45.50
2018-02-23T00:15:12.476Z,45.50
2018-02-23T00:16:13.571Z,45.20
2018-02-23T00:17:14.668Z,45.50
2018-02-23T00:18:15.761Z,45.80
2018-02-23T00:19:16.849Z,45.30
2018-02-23T00:20:17.948Z,45.80
2018-02-23T00:21:19.034Z,46.20
2018-02-23T00:22:20.128Z,45.70
2018-02-23T00:23:21.944Z,46.00
2018-02-23T00:24:23.040Z,45.90
2018-02-23T00:25:24.121Z,45.70
2018-02-23T00:26:25.207Z,45.90
2018-02-23T00:28:26.952Z,45.90
2018-02-23T00:29:28.041Z,46.10
2018-02-23T00:30:29.128Z,46.00
2018-02-23T00:31:30.229Z,45.60
2018-02-23T00:32:32.550Z,45.90
2018-02-23T00:33:33.648Z,46.00
2018-02-23T00:34:34.739Z,46.20
2018-02-23T00:35:35.820Z,46.00
2018-02-23T00:36:36.919Z,46.20
2018-02-23T00:37:38.009Z,45.90
2018-02-23T00:38:39.856Z,45.90
2018-02-23T00:39:41.707Z,45.60
2018-02-23T00:40:42.833Z,45.50
2018-02-23T00:41:43.895Z,45.80
2018-02-23T00:42:45.004Z,46.50
2018-02-23T00:43:46.853Z,45.70
2018-02-23T00:44:47.931Z,45.70
2018-02-23T00:45:49.029Z,45.20
2018-02-23T00:46:50.129Z,44.60
2018-02-23T00:47:51.227Z,44.50
2018-02-23T00:48:52.340Z,44.80
2018-02-23T00:49:53.436Z,44.90
2018-02-23T00:50:54.549Z,45.10
2018-02-23T00:51:55.652Z,45.10
2018-02-23T00:52:57.484Z,44.90
2018-02-23T00:53:59.332Z,44.70
2018-02-23T00:55:00.423Z,44.70
2018-02-23T00:56:01.516Z,44.70
2018-02-23T00:57:02.629Z,45.10
2018-02-23T00:58:04.512Z,45.10
2018-02-23T00:59:05.612Z,45.00
2018-02-23T01:00:06.724Z,44.60
2018-02-23T01:01:07.831Z,45.00
2018-02-23T01:02:08.920Z,45.20
2018-02-23T01:03:10.008Z,44.90
2018-02-23T01:04:11.104Z,45.10
2018-02-23T01:05:12.951Z,45.10
2018-02-23T01:06:14.055Z,45.10
2018-02-23T01:07:15.904Z,44.80
2018-02-23T01:08:17.007Z,44.70
2018-02-23T01:09:18.092Z,44.80
2018-02-23T01:10:19.179Z,44.40
2018-02-23T01:11:20.277Z,44.50
2018-02-23T01:12:21.393Z,44.50
2018-02-23T01:13:22.528Z,44.40
2018-02-23T01:14:23.629Z,45.20
2018-02-23T01:15:25.480Z,44.20
2018-02-23T01:16:26.563Z,44.20
2018-02-23T01:17:27.651Z,44.10
2018-02-23T01:18:29.485Z,44.20
2018-02-23T01:19:30.572Z,44.20
2018-02-23T01:20:31.656Z,44.50
2018-02-23T01:21:32.798Z,44.80
2018-02-23T01:22:33.844Z,44.50
2018-02-23T01:23:34.918Z,44.40
2018-02-23T01:24:36.003Z,44.60
2018-02-23T01:25:37.095Z,44.60
2018-02-23T01:26:39.109Z,44.70
2018-02-23T01:27:40.939Z,45.10
2018-02-23T01:28:42.095Z,45.10
2018-02-23T01:29:43.225Z,45.10
2018-02-23T01:30:44.364Z,45.00
2018-02-23T01:31:45.490Z,45.10
2018-02-23T01:32:46.628Z,45.10
2018-02-23T01:33:47.791Z,44.80
2018-02-23T01:34:48.936Z,44.80
2018-02-23T01:35:50.068Z,45.10
2018-02-23T01:36:51.220Z,44.90
2018-02-23T01:37:52.361Z,44.80
2018-02-23T01:38:53.501Z,45.00
2018-02-23T01:39:54.621Z,45.40
2018-02-23T01:40:56.503Z,44.90
2018-02-23T01:41:57.733Z,44.70
2018-02-23T01:42:58.854Z,44.80
2018-02-23T01:44:00.647Z,44.90
2018-02-23T01:45:01.840Z,45.00
2018-02-23T01:46:03.683Z,44.90
2018-02-23T01:47:04.820Z,44.90
2018-02-23T01:48:05.951Z,44.90
2018-02-23T01:49:07.975Z,44.40
2018-02-23T01:50:09.105Z,44.70
2018-02-23T01:51:10.248Z,44.80
2018-02-23T01:52:11.376Z,44.60
2018-02-23T01:53:12.517Z,44.90
2018-02-23T01:54:14.422Z,45.00
2018-02-23T01:55:15.648Z,45.10
2018-02-23T01:56:16.751Z,45.10
2018-02-23T01:57:17.864Z,44.80
2018-02-23T01:58:19.001Z,45.10
2018-02-23T01:59:20.136Z,44.80
2018-02-23T02:00:21.291Z,45.00
2018-02-23T02:01:22.420Z,45.20
2018-02-23T02:02:24.257Z,45.00
2018-02-23T02:03:25.380Z,45.00
2018-02-23T02:04:27.464Z,45.00
2018-02-23T02:05:28.590Z,45.00
2018-02-23T02:06:30.444Z,45.00
2018-02-23T02:07:32.309Z,45.00
2018-02-23T02:08:33.440Z,45.00
2018-02-23T02:09:34.598Z,45.10
2018-02-23T02:10:35.777Z,45.30
2018-02-23T02:11:36.911Z,45.20
2018-02-23T02:12:38.042Z,45.20
2018-02-23T02:13:39.166Z,45.50
2018-02-23T02:14:40.309Z,45.30
2018-02-23T02:15:41.447Z,45.30
2018-02-23T02:16:42.580Z,45.00
2018-02-23T02:17:43.715Z,45.40
2018-02-23T02:18:45.587Z,45.70
2018-02-23T02:19:46.725Z,45.70
2018-02-23T02:20:47.864Z,46.00
2018-02-23T02:21:48.989Z,45.80
2018-02-23T02:22:50.850Z,45.60
2018-02-23T02:23:51.983Z,45.60
2018-02-23T02:24:53.097Z,45.80
2018-02-23T02:25:54.221Z,45.80
2018-02-23T02:26:55.336Z,45.40
2018-02-23T02:27:56.476Z,45.50
2018-02-23T02:28:58.377Z,45.80
2018-02-23T02:30:00.092Z,45.80
2018-02-23T02:31:01.212Z,45.50
2018-02-23T02:32:03.075Z,45.30
2018-02-23T02:33:05.923Z,45.30
2018-02-23T02:34:07.064Z,45.30
2018-02-23T02:35:08.192Z,45.30
2018-02-23T02:36:09.336Z,45.30
2018-02-23T02:37:10.468Z,45.30
2018-02-23T02:38:12.339Z,45.70
2018-02-23T02:39:14.235Z,45.20
2018-02-23T02:40:15.348Z,45.30
2018-02-23T02:41:16.482Z,45.40
2018-02-23T02:42:17.601Z,45.40
2018-02-23T02:43:18.712Z,45.20
2018-02-23T02:44:19.854Z,45.40
2018-02-23T02:45:21.706Z,45.60
2018-02-23T02:46:22.832Z,45.60
2018-02-23T02:47:24.700Z,45.40
2018-02-23T02:48:26.552Z,45.50
2018-02-23T02:49:27.682Z,45.50
2018-02-23T02:50:28.773Z,46.40
2018-02-23T02:51:29.912Z,45.50
2018-02-23T02:52:31.026Z,45.60
2018-02-23T02:53:32.182Z,45.80
2018-02-23T02:54:33.313Z,46.00
2018-02-23T02:55:34.429Z,46.30
2018-02-23T02:56:35.556Z,46.30
2018-02-23T02:57:36.688Z,46.50
2018-02-23T02:58:37.813Z,46.60
2018-02-23T02:59:38.940Z,46.60
2018-02-23T03:00:40.085Z,46.80
2018-02-23T03:01:41.196Z,46.80
2018-02-23T03:02:42.319Z,46.80
2018-02-23T03:03:43.457Z,46.90
2018-02-23T03:04:44.591Z,46.80
2018-02-23T03:05:45.708Z,46.70
2018-02-23T03:06:47.572Z,46.80
2018-02-23T03:07:48.698Z,46.80
2018-02-23T03:08:49.836Z,47.60
2018-02-23T03:09:50.972Z,47.00
2018-02-23T03:10:52.103Z,46.90
2018-02-23T03:11:53.231Z,47.00
2018-02-23T03:12:54.361Z,46.80
2018-02-23T03:13:55.496Z,47.00
2018-02-23T03:14:57.364Z,47.10
2018-02-23T03:15:58.489Z,47.10
2018-02-23T03:16:59.588Z,46.80
2018-02-23T03:18:01.482Z,47.10
2018-02-23T03:19:02.587Z,46.90
2018-02-23T03:20:04.420Z,47.10
2018-02-23T03:21:05.488Z,47.10
2018-02-23T03:22:06.579Z,47.20
2018-02-23T03:23:07.664Z,47.30
2018-02-23T03:24:08.755Z,47.10
2018-02-23T03:25:09.828Z,47.10
2018-02-23T03:26:10.885Z,46.90
2018-02-23T03:27:11.963Z,47.20
2018-02-23T03:28:13.792Z,46.90
2018-02-23T03:29:14.844Z,46.90
2018-02-23T03:30:16.654Z,47.90
2018-02-23T03:31:17.725Z,47.60
2018-02-23T03:32:19.527Z,47.90
2018-02-23T03:33:20.586Z,47.90
2018-02-23T03:34:21.635Z,47.50
2018-02-23T03:35:22.715Z,47.30
2018-02-23T03:36:23.792Z,47.80
2018-02-23T03:37:24.866Z,47.40
2018-02-23T03:38:25.935Z,47.60
2018-02-23T03:39:27.023Z,47.30
2018-02-23T03:40:28.099Z,48.10
2018-02-23T03:41:29.171Z,47.40
2018-02-23T03:42:30.249Z,47.70
2018-02-23T03:43:31.345Z,47.00
2018-02-23T03:44:32.420Z,47.20
2018-02-23T03:45:33.482Z,47.70
2018-02-23T03:46:34.532Z,47.30
2018-02-23T03:47:35.608Z,47.70
2018-02-23T03:48:36.668Z,47.40
2018-02-23T03:49:37.744Z,47.30
2018-02-23T03:50:39.572Z,47.50
2018-02-23T03:51:41.384Z,47.70
2018-02-23T03:52:42.482Z,47.60
2018-02-23T03:53:43.549Z,47.70
2018-02-23T03:54:44.647Z,47.70
2018-02-23T03:55:45.733Z,47.50
2018-02-23T03:56:46.812Z,47.00
2018-02-23T03:57:47.902Z,47.20
2018-02-23T03:58:49.715Z,47.50
2018-02-23T03:59:50.768Z,47.40
2018-02-23T04:00:51.860Z,47.30
2018-02-23T04:01:52.941Z,47.40
2018-02-23T04:02:54.002Z,47.30
2018-02-23T04:03:55.071Z,48.30
2018-02-23T04:04:56.149Z,47.70
2018-02-23T04:05:57.211Z,47.70
2018-02-23T04:06:58.276Z,47.50
2018-02-23T04:07:59.335Z,47.40
2018-02-23T04:09:00.411Z,47.50
2018-02-23T04:10:01.483Z,47.50
2018-02-23T04:11:02.596Z,47.60
2018-02-23T04:12:03.665Z,47.60
2018-02-23T04:13:05.496Z,47.70
2018-02-23T04:14:06.565Z,47.70
2018-02-23T04:15:07.669Z,47.70
2018-02-23T04:16:08.756Z,47.60
2018-02-23T04:17:09.826Z,47.30
2018-02-23T04:18:10.895Z,47.50
2018-02-23T04:19:11.980Z,47.10
2018-02-23T04:20:13.052Z,47.40
2018-02-23T04:21:14.855Z,47.40
2018-02-23T04:22:15.910Z,47.40
2018-02-23T04:23:16.977Z,47.60
2018-02-23T04:24:18.771Z,47.70
2018-02-23T04:25:19.844Z,47.70
2018-02-23T04:26:21.689Z,48.20
2018-02-23T04:27:23.512Z,48.30
2018-02-23T04:28:24.728Z,48.10
2018-02-23T04:29:25.791Z,48.30
2018-02-23T04:30:26.879Z,47.80
2018-02-23T04:31:27.947Z,48.00
2018-02-23T04:32:29.040Z,47.80
2018-02-23T04:33:30.132Z,47.60
2018-02-23T04:34:31.198Z,48.10
2018-02-23T04:35:32.298Z,47.30
2018-02-23T04:36:33.396Z,47.70
2018-02-23T04:37:34.499Z,47.80
2018-02-23T04:38:35.567Z,48.10
2018-02-23T04:39:36.704Z,48.20
2018-02-23T04:40:37.789Z,48.10
2018-02-23T04:41:38.887Z,47.70
2018-02-23T04:42:39.984Z,48.10
2018-02-23T04:43:41.070Z,48.10
2018-02-23T04:44:42.171Z,48.10
2018-02-23T04:45:43.276Z,47.80
2018-02-23T04:46:44.363Z,47.70
2018-02-23T04:47:46.187Z,48.10
2018-02-23T04:48:47.251Z,48.10
2018-02-23T04:49:49.067Z,47.40
2018-02-23T04:50:50.176Z,47.40
2018-02-23T04:51:52.015Z,47.70
2018-02-23T04:52:53.095Z,47.70
2018-02-23T04:53:54.160Z,48.00
2018-02-23T04:54:55.240Z,47.90
2018-02-23T04:55:56.374Z,47.90
2018-02-23T04:56:57.421Z,48.00
2018-02-23T04:57:58.479Z,48.00
2018-02-23T04:58:59.549Z,48.00
2018-02-23T05:00:00.635Z,48.00
2018-02-23T05:01:02.476Z,48.00
2018-02-23T05:02:03.560Z,48.00
2018-02-23T05:03:04.642Z,48.70
2018-02-23T05:04:05.719Z,49.20
2018-02-23T05:05:06.792Z,49.00
2018-02-23T05:06:07.894Z,48.50
2018-02-23T05:07:08.984Z,49.40
2018-02-23T05:08:10.808Z,48.10
2018-02-23T05:09:11.892Z,48.10
2018-02-23T05:10:12.982Z,48.90
2018-02-23T05:11:14.055Z,48.80
2018-02-23T05:12:15.131Z,48.10
2018-02-23T05:13:16.232Z,48.80
2018-02-23T05:14:17.327Z,48.00
2018-02-23T05:15:18.400Z,48.20
2018-02-23T05:16:19.487Z,48.50
2018-02-23T05:17:20.614Z,48.20
2018-02-23T05:18:21.713Z,48.00
2018-02-23T05:19:22.808Z,48.40
2018-02-23T05:20:23.879Z,48.10
2018-02-23T05:21:25.005Z,48.00
2018-02-23T05:22:26.091Z,48.40
2018-02-23T05:23:27.215Z,48.00
2018-02-23T05:24:29.047Z,48.10
2018-02-23T05:25:30.143Z,48.20
2018-02-23T05:26:31.242Z,48.00
2018-02-23T05:27:32.339Z,48.00
2018-02-23T05:28:33.436Z,48.00
2018-02-23T05:29:34.544Z,48.00
2018-02-23T05:30:35.642Z,48.60
2018-02-23T05:31:36.735Z,48.50
2018-02-23T05:32:37.840Z,48.90
2018-02-23T05:33:39.648Z,48.80
2018-02-23T05:34:40.728Z,48.80
2018-02-23T05:35:41.887Z,48.60
2018-02-23T05:36:42.972Z,48.00
2018-02-23T05:37:44.772Z,48.10
2018-02-23T05:38:45.857Z,48.10
2018-02-23T05:39:47.681Z,48.50
2018-02-23T05:40:48.755Z,48.40
2018-02-23T05:41:49.855Z,48.60
2018-02-23T05:42:50.940Z,48.60
2018-02-23T05:43:52.776Z,48.40
2018-02-23T05:44:53.867Z,48.50
2018-02-23T05:45:55.788Z,49.00
2018-02-23T05:46:56.955Z,48.40
2018-02-23T05:47:58.165Z,48.70
2018-02-23T05:48:59.323Z,48.90
2018-02-23T05:50:00.448Z,49.20
2018-02-23T05:51:01.519Z,48.50
2018-02-23T05:52:02.599Z,47.80
2018-02-23T05:53:03.676Z,47.90
2018-02-23T05:54:05.503Z,48.80
2018-02-23T05:55:06.601Z,48.80
2018-02-23T05:56:07.695Z,49.10
2018-02-23T05:57:08.860Z,48.70
2018-02-23T05:58:09.967Z,48.70
2018-02-23T05:59:11.052Z,48.30
2018-02-23T06:00:12.157Z,48.60
2018-02-23T06:01:13.262Z,48.70
2018-02-23T06:02:14.380Z,48.90
2018-02-23T06:03:16.216Z,48.70
2018-02-23T06:04:17.332Z,48.70
2018-02-23T06:05:18.395Z,49.00
2018-02-23T06:06:20.219Z,49.50
2018-02-23T06:07:21.296Z,49.40
2018-02-23T06:08:22.381Z,49.20
2018-02-23T06:09:23.472Z,48.80
2018-02-23T06:10:24.577Z,49.50
2018-02-23T06:11:26.388Z,48.90
2018-02-23T06:12:27.480Z,48.90
2018-02-23T06:13:28.552Z,49.00
2018-02-23T06:14:29.669Z,49.20
2018-02-23T06:15:36.991Z,49.40
2018-02-23T06:16:38.103Z,49.20
2018-02-23T06:19:22.983Z,49.40
2018-02-23T06:20:27.900Z,49.20
2018-02-23T06:21:29.002Z,49.40
2018-02-23T06:22:30.099Z,49.40
2018-02-23T06:23:31.901Z,49.70
2018-02-23T06:24:32.992Z,50.40
2018-02-23T06:25:34.067Z,50.20
2018-02-23T06:26:35.155Z,49.70
2018-02-23T06:27:36.874Z,49.60
2018-02-23T06:28:37.948Z,49.30
2018-02-23T06:29:39.024Z,50.00
2018-02-23T06:30:40.108Z,49.80
2018-02-23T06:31:41.196Z,49.50
2018-02-23T06:32:42.265Z,49.50
2018-02-23T06:33:43.353Z,49.70
2018-02-23T06:34:44.503Z,49.70
2018-02-23T06:35:46.347Z,49.40
2018-02-23T06:36:48.193Z,50.00
2018-02-23T06:37:49.283Z,49.80
2018-02-23T06:38:50.365Z,50.00
2018-02-23T06:39:51.419Z,49.70
2018-02-23T06:40:52.507Z,49.70
2018-02-23T06:41:53.615Z,49.70
2018-02-23T06:42:54.708Z,50.00
2018-02-23T06:43:55.787Z,49.70
2018-02-23T06:44:56.859Z,49.50
2018-02-23T06:45:58.884Z,49.40
2018-02-23T06:47:06.207Z,50.00
2018-02-23T06:48:09.364Z,49.40
2018-02-23T06:49:10.407Z,49.70
2018-02-23T06:50:11.507Z,49.60
2018-02-23T06:51:12.596Z,50.00
2018-02-23T06:52:13.692Z,50.10
2018-02-23T06:53:14.779Z,50.70
2018-02-23T06:54:15.866Z,50.70
2018-02-23T06:55:18.575Z,49.90
2018-02-23T06:56:19.663Z,50.00
2018-02-23T06:57:20.771Z,49.90
2018-02-23T06:58:21.871Z,51.10
2018-02-23T06:59:22.970Z,50.40
2018-02-23T07:00:24.783Z,50.10
2018-02-23T07:01:25.876Z,50.10
2018-02-23T07:02:26.969Z,49.80
2018-02-23T07:03:29.096Z,49.70
2018-02-23T07:04:30.187Z,50.10
2018-02-23T07:05:31.255Z,50.00
2018-02-23T07:06:32.329Z,50.20
2018-02-23T07:07:33.423Z,50.00
2018-02-23T07:08:34.493Z,50.80
2018-02-23T07:09:35.587Z,50.20
2018-02-23T07:10:37.412Z,50.00
2018-02-23T07:11:39.549Z,50.00
2018-02-23T07:12:40.627Z,50.00
2018-02-23T07:13:41.698Z,50.40
2018-02-23T07:14:43.528Z,50.40
2018-02-23T07:15:44.627Z,50.30
2018-02-23T07:16:45.708Z,50.60
2018-02-23T07:17:46.799Z,50.30
2018-02-23T07:18:47.881Z,50.80
2018-02-23T07:19:49.695Z,50.80
2018-02-23T07:20:50.762Z,50.80
2018-02-23T07:21:52.007Z,50.40
2018-02-23T07:22:53.815Z,50.50
2018-02-23T07:23:55.013Z,50.50
2018-02-23T07:24:56.113Z,50.80
2018-02-23T07:25:57.955Z,50.40
2018-02-23T07:26:59.976Z,50.40
2018-02-23T07:28:01.079Z,50.20
2018-02-23T07:29:02.187Z,50.50
2018-02-23T07:30:03.271Z,50.50
2018-02-23T07:31:04.372Z,50.20
2018-02-23T07:32:05.435Z,49.80
2018-02-23T07:33:06.530Z,50.00
2018-02-23T07:34:08.354Z,50.10
2018-02-23T07:35:10.796Z,50.10
2018-02-23T07:36:11.872Z,50.30
2018-02-23T07:37:13.700Z,50.80
2018-02-23T07:38:14.796Z,50.80
2018-02-23T07:39:15.896Z,50.40
2018-02-23T07:40:17.005Z,51.20
2018-02-23T07:41:18.847Z,50.60
2018-02-23T07:42:21.002Z,50.60
2018-02-23T07:43:22.095Z,51.30
2018-02-23T07:44:23.207Z,51.10
2018-02-23T07:45:24.303Z,50.70
2018-02-23T07:46:26.148Z,50.80
2018-02-23T07:47:27.225Z,50.80
2018-02-23T07:48:28.307Z,50.80
2018-02-23T07:49:29.435Z,50.70
2018-02-23T07:50:30.559Z,50.50
2018-02-23T07:51:31.648Z,50.40
2018-02-23T07:52:32.771Z,50.10
2018-02-23T07:53:34.628Z,50.90
2018-02-23T07:54:35.723Z,50.20
2018-02-23T07:55:36.792Z,50.70
2018-02-23T07:56:38.630Z,50.40
2018-02-23T07:57:39.715Z,50.40
2018-02-23T07:58:40.860Z,50.50
2018-02-23T07:59:41.988Z,50.40
2018-02-23T08:00:45.007Z,50.40
2018-02-23T08:01:46.091Z,50.50
2018-02-23T08:02:47.180Z,50.30
2018-02-23T08:03:48.992Z,50.10
2018-02-23T08:04:50.140Z,50.00
2018-02-23T08:05:51.994Z,50.00
2018-02-23T08:06:53.111Z,50.00
2018-02-23T08:07:54.265Z,50.10
2018-02-23T08:08:55.324Z,50.00
2018-02-23T08:09:56.416Z,50.70
2018-02-23T08:10:57.499Z,50.60
2018-02-23T08:11:58.602Z,50.60
2018-02-23T08:12:59.707Z,50.60
2018-02-23T08:14:00.836Z,51.20
2018-02-23T08:15:01.944Z,50.80
2018-02-23T08:16:03.039Z,50.70
2018-02-23T08:17:04.123Z,50.50
2018-02-23T08:18:05.200Z,50.40
2018-02-23T08:19:06.296Z,50.50
2018-02-23T08:20:07.371Z,50.60
2018-02-23T08:21:08.467Z,50.60
2018-02-23T08:22:09.551Z,50.00
2018-02-23T08:23:10.649Z,50.00
2018-02-23T08:24:12.470Z,50.10
2018-02-23T08:25:13.548Z,50.10
2018-02-23T08:26:14.661Z,50.10
2018-02-23T08:27:15.760Z,50.10
2018-02-23T08:28:16.866Z,49.80
2018-02-23T08:29:17.969Z,49.70
2018-02-23T08:30:19.115Z,49.80
2018-02-23T08:31:20.197Z,49.90
2018-02-23T08:32:21.270Z,50.10
2018-02-23T08:33:23.091Z,50.10
2018-02-23T08:34:24.176Z,50.00
2018-02-23T08:35:25.247Z,49.90
2018-02-23T08:36:26.367Z,50.10
2018-02-23T08:37:27.451Z,50.20
2018-02-23T08:38:29.268Z,50.70
2018-02-23T08:39:30.386Z,50.80
2018-02-23T08:40:31.471Z,50.50
2018-02-23T08:41:33.287Z,50.90
2018-02-23T08:42:34.351Z,50.90
2018-02-23T08:43:35.442Z,50.80
2018-02-23T08:44:36.578Z,50.40
2018-02-23T08:45:37.696Z,50.50
2018-02-23T08:46:39.610Z,50.60
2018-02-23T08:47:40.706Z,50.50
2018-02-23T08:48:41.811Z,50.90
2018-02-23T08:49:42.890Z,50.80
2018-02-23T08:50:44.707Z,50.70
2018-02-23T08:51:45.787Z,50.70
2018-02-23T08:52:46.871Z,50.40
2018-02-23T08:53:48.003Z,50.40
2018-02-23T08:54:49.080Z,49.90
2018-02-23T08:55:50.157Z,50.40
2018-02-23T08:56:51.234Z,50.30
2018-02-23T08:57:53.065Z,50.30
2018-02-23T08:58:54.144Z,50.30
2018-02-23T08:59:55.219Z,50.40
2018-02-23T09:00:56.361Z,50.30
2018-02-23T09:01:57.477Z,50.00
2018-02-23T09:02:58.548Z,51.30
2018-02-23T09:04:00.363Z,50.20
2018-02-23T09:05:01.439Z,50.20
2018-02-23T09:06:02.538Z,49.90
2018-02-23T09:07:03.643Z,49.70
2018-02-23T09:08:04.708Z,49.90
2018-02-23T09:09:05.815Z,50.10
2018-02-23T09:10:06.923Z,50.00
2018-02-23T09:11:08.027Z,49.80
2018-02-23T09:12:09.839Z,49.80
2018-02-23T09:13:10.932Z,49.80
2018-02-23T09:14:12.047Z,49.80
2018-02-23T09:15:13.874Z,49.80
2018-02-23T09:16:14.947Z,49.80
2018-02-23T09:17:16.020Z,50.00
2018-02-23T09:18:17.092Z,50.00
2018-02-23T09:19:18.172Z,50.00
2018-02-23T09:20:19.324Z,50.10
2018-02-23T09:21:20.419Z,50.20
2018-02-23T09:22:21.504Z,50.20
2018-02-23T09:23:22.603Z,50.20
2018-02-23T09:24:23.684Z,50.70
2018-02-23T09:25:25.495Z,50.00
2018-02-23T09:26:26.560Z,50.70
2018-02-23T09:27:28.384Z,50.10
2018-02-23T09:28:29.479Z,50.00
2018-02-23T09:29:30.550Z,49.90
2018-02-23T09:30:31.617Z,49.80
2018-02-23T09:31:32.715Z,49.80
2018-02-23T09:32:36.771Z,50.00
2018-02-23T09:33:50.036Z,50.40
2018-02-23T09:34:51.084Z,50.50
2018-02-23T09:35:52.160Z,50.60
2018-02-23T09:36:53.229Z,50.50
2018-02-23T09:37:54.311Z,50.90
2018-02-23T09:38:55.384Z,50.70
2018-02-23T09:39:56.479Z,51.60
2018-02-23T09:40:57.556Z,51.20
2018-02-23T09:41:58.652Z,50.60
2018-02-23T09:42:59.752Z,50.50
2018-02-23T09:44:01.571Z,50.90
2018-02-23T09:45:02.651Z,51.60
2018-02-23T09:46:03.734Z,50.50
2018-02-23T09:47:04.816Z,50.40
2018-02-23T09:48:05.952Z,50.50
2018-02-23T09:49:07.048Z,50.20
2018-02-23T09:50:08.141Z,50.70
2018-02-23T09:51:09.207Z,50.40
2018-02-23T09:52:10.286Z,50.20
2018-02-23T09:53:11.360Z,49.80
2018-02-23T09:54:13.175Z,49.60
2018-02-23T09:55:14.255Z,49.50
2018-02-23T09:56:15.328Z,49.60
2018-02-23T09:57:16.429Z,49.60
2018-02-23T09:58:17.495Z,49.40
2018-02-23T09:59:18.595Z,49.90
2018-02-23T10:00:19.690Z,49.50
2018-02-23T10:01:20.779Z,49.70
2018-02-23T10:02:22.582Z,50.40
2018-02-23T10:03:23.663Z,49.60
2018-02-23T10:04:24.747Z,49.50
2018-02-23T10:05:25.820Z,49.50
2018-02-23T10:06:26.894Z,49.10
2018-02-23T10:07:27.959Z,49.30
2018-02-23T10:08:29.024Z,49.20
2018-02-23T10:09:30.099Z,49.30
2018-02-23T10:10:31.175Z,49.30
2018-02-23T10:11:33.014Z,49.40
2018-02-23T10:12:34.828Z,49.20
2018-02-23T10:13:35.911Z,49.20
2018-02-23T10:14:37.768Z,48.80
2018-02-23T10:15:38.841Z,48.80
2018-02-23T10:16:39.931Z,48.90
2018-02-23T10:17:41.025Z,49.20
2018-02-23T10:18:42.140Z,49.40
2018-02-23T10:19:43.223Z,49.50
2018-02-23T10:20:44.303Z,49.70
2018-02-23T10:21:45.383Z,49.90
2018-02-23T10:22:46.472Z,49.90
2018-02-23T10:23:47.547Z,49.70
2018-02-23T10:24:49.369Z,49.80
2018-02-23T10:25:50.453Z,49.80
2018-02-23T10:26:51.519Z,49.70
2018-02-23T10:27:52.593Z,49.80
2018-02-23T10:28:53.674Z,49.70
2018-02-23T10:29:54.763Z,49.60
2018-02-23T10:30:55.867Z,50.00
2018-02-23T10:31:57.011Z,49.60
2018-02-23T10:32:58.299Z,49.60
2018-02-23T10:33:59.398Z,49.40
2018-02-23T10:35:00.487Z,49.30
2018-02-23T10:36:01.613Z,49.80
2018-02-23T10:37:02.663Z,49.20
2018-02-23T10:38:03.868Z,49.60
2018-02-23T10:39:04.904Z,48.90
2018-02-23T10:40:05.999Z,49.10
2018-02-23T10:41:07.127Z,49.30
2018-02-23T10:42:08.961Z,48.70
2018-02-23T10:43:10.819Z,48.60
2018-02-23T10:44:12.668Z,49.40
2018-02-23T10:45:14.525Z,49.70
2018-02-23T10:46:15.615Z,49.70
2018-02-23T10:47:16.763Z,49.30
2018-02-23T10:48:17.808Z,49.30
2018-02-23T10:49:19.639Z,49.10
2018-02-23T10:50:20.751Z,49.10
2018-02-23T10:51:21.847Z,49.40
2018-02-23T10:52:23.684Z,49.00
2018-02-23T10:53:24.779Z,48.90
2018-02-23T10:54:25.872Z,49.20
2018-02-23T10:55:26.939Z,49.40
2018-02-23T10:56:28.028Z,49.30
2018-02-23T10:57:29.150Z,49.10
2018-02-23T10:58:30.987Z,48.90
2018-02-23T10:59:32.099Z,48.80
2018-02-23T11:00:33.194Z,49.30
2018-02-23T11:01:34.293Z,49.40
2018-02-23T11:02:35.387Z,49.20
2018-02-23T11:03:36.492Z,49.30
2018-02-23T11:04:37.599Z,49.00
2018-02-23T11:05:38.663Z,48.80
2018-02-23T11:06:39.733Z,49.40
2018-02-23T11:07:41.597Z,48.80
2018-02-23T11:08:43.411Z,48.80
2018-02-23T11:09:44.508Z,48.80
2018-02-23T11:10:45.621Z,48.80
2018-02-23T11:11:46.740Z,48.80
2018-02-23T11:12:47.823Z,48.80
2018-02-23T11:13:48.904Z,48.80
2018-02-23T11:14:50.747Z,48.80
2018-02-23T11:15:51.901Z,48.80
2018-02-23T11:16:53.747Z,48.80
2018-02-23T11:17:54.843Z,48.80
2018-02-23T11:18:55.927Z,48.80
2018-02-23T11:19:57.082Z,48.80
2018-02-23T11:20:58.936Z,48.80
2018-02-23T11:22:00.020Z,49.10
2018-02-23T11:23:01.103Z,48.90
2018-02-23T11:24:02.221Z,48.80
2018-02-23T11:25:03.318Z,48.80
2018-02-23T11:26:05.148Z,48.80
2018-02-23T11:27:06.245Z,48.80
2018-02-23T11:28:07.334Z,48.80
2018-02-23T11:29:09.157Z,48.80
2018-02-23T11:30:10.239Z,48.80
2018-02-23T11:31:11.334Z,48.80
2018-02-23T11:32:12.399Z,49.20
2018-02-23T11:33:14.212Z,49.00
2018-02-23T11:34:15.291Z,48.90
2018-02-23T11:35:16.394Z,49.50
2018-02-23T11:36:17.460Z,49.60
2018-02-23T11:37:18.564Z,50.00
2018-02-23T11:38:20.412Z,49.50
2018-02-23T11:39:21.475Z,49.30
2018-02-23T11:40:22.567Z,49.70
2018-02-23T11:41:23.664Z,49.90
2018-02-23T11:42:24.728Z,50.50
2018-02-23T11:43:25.811Z,49.80
2018-02-23T11:44:26.907Z,49.70
2018-02-23T11:45:28.011Z,49.20
2018-02-23T11:46:29.135Z,49.70
2018-02-23T11:47:30.260Z,49.20
2018-02-23T11:48:31.333Z,48.90
2018-02-23T11:49:33.166Z,48.90
2018-02-23T11:50:34.244Z,48.90
2018-02-23T11:51:35.327Z,48.90
2018-02-23T11:52:36.404Z,49.10
2018-02-23T11:53:37.492Z,49.10
2018-02-23T11:54:38.559Z,49.10
2018-02-23T11:55:39.673Z,49.10
2018-02-23T11:56:40.731Z,49.10
2018-02-23T11:57:43.684Z,49.00
2018-02-23T11:58:44.763Z,49.10
2018-02-23T11:59:45.837Z,49.10
2018-02-23T12:00:46.912Z,49.10
2018-02-23T12:01:47.991Z,49.20
2018-02-23T12:02:49.069Z,49.20
2018-02-23T12:03:50.159Z,49.40
2018-02-23T12:04:51.256Z,49.20
2018-02-23T12:05:52.381Z,49.20
2018-02-23T12:06:53.477Z,49.00
2018-02-23T12:07:54.543Z,49.10
2018-02-23T12:08:55.621Z,49.20
2018-02-23T12:09:56.728Z,49.30
2018-02-23T12:10:57.791Z,48.60
2018-02-23T12:11:58.869Z,48.60
2018-02-23T12:12:59.956Z,48.50
2018-02-23T12:14:01.075Z,48.60
2018-02-23T12:15:02.159Z,48.70
2018-02-23T12:16:03.247Z,48.60
2018-02-23T12:17:04.336Z,48.50
2018-02-23T12:18:06.167Z,48.70
2018-02-23T12:19:07.247Z,48.70
2018-02-23T12:20:08.319Z,48.40
2018-02-23T12:21:09.379Z,48.50
2018-02-23T12:22:10.451Z,48.70
2018-02-23T12:23:11.535Z,49.10
2018-02-23T12:24:13.354Z,48.70
2018-02-23T12:25:14.447Z,48.70
2018-02-23T12:26:15.531Z,48.70
2018-02-23T12:27:17.366Z,48.70
2018-02-23T12:28:18.478Z,48.60
2018-02-23T12:29:19.563Z,48.40
2018-02-23T12:30:20.652Z,48.30
2018-02-23T12:31:21.731Z,48.40
2018-02-23T12:32:22.799Z,48.20
2018-02-23T12:33:23.865Z,48.00
2018-02-23T12:34:24.926Z,48.40
2018-02-23T12:35:26.032Z,48.10
2018-02-23T12:36:27.079Z,48.10
2018-02-23T12:37:28.900Z,48.40
2018-02-23T12:38:29.966Z,48.40
2018-02-23T12:39:31.080Z,48.40
2018-02-23T12:40:32.172Z,48.80
2018-02-23T12:41:33.249Z,49.00
2018-02-23T12:42:35.067Z,48.40
2018-02-23T12:43:36.139Z,48.40
2018-02-23T12:44:37.267Z,48.70
2018-02-23T12:45:38.344Z,48.50
2018-02-23T12:46:39.401Z,47.90
2018-02-23T12:47:40.476Z,48.20
2018-02-23T12:48:41.547Z,48.20
2018-02-23T12:49:42.612Z,48.40
2018-02-23T12:50:43.690Z,48.30
2018-02-23T12:51:44.777Z,48.20
2018-02-23T12:52:46.616Z,48.60
2018-02-23T12:53:47.704Z,47.90
2018-02-23T12:54:49.513Z,48.00
2018-02-23T12:55:50.570Z,47.90
2018-02-23T12:56:51.651Z,47.80
2018-02-23T12:57:52.763Z,47.70
2018-02-23T12:58:53.841Z,48.10
2018-02-23T12:59:55.658Z,48.30
2018-02-23T13:00:56.777Z,48.30
2018-02-23T13:01:57.879Z,48.30
2018-02-23T13:02:58.968Z,48.80
2018-02-23T13:04:00.035Z,48.20
2018-02-23T13:05:01.111Z,47.40
2018-02-23T13:06:02.204Z,47.70
2018-02-23T13:07:03.326Z,47.50
2018-02-23T13:08:05.148Z,47.30
2018-02-23T13:09:06.228Z,47.20
2018-02-23T13:10:07.323Z,46.90
2018-02-23T13:11:08.403Z,47.00
2018-02-23T13:12:09.485Z,46.80